Terminal Aerodrome Forecast
Issued by NWS

Home | Current Version | Previous Version | Graphics & Text | Print | Product List | Glossary On
Versions: 1 2 3 4 5 6 7 8 9 10 11 12 13 14 15 16 17 18 19 20 21 22 23 24
000
FTUS43 KBIS 171720
TAFJMS
TAF
KJMS 171720Z 1718/1818 27010KT P6SM FEW250
     FM172100 23008KT P6SM FEW250
     FM180100 15005KT P6SM FEW110 SCT250
     FM180600 15006KT P6SM VCSH BKN060 OVC250
     FM181300 19006KT P6SM FEW060 SCT150=

USA.gov is the U.S. government's official web portal to all federal, state and local government web resources and services.